sensor_id;sensor_type;location;lat;lon;timestamp;P1;durP1;ratioP1;P2;durP2;ratioP2
54947;SDS011;41113;41.882;12.530;2023-05-23T00:01:29;21.60;;;11.35;;
54947;SDS011;41113;41.882;12.530;2023-05-23T00:04:01;20.50;;;11.27;;
54947;SDS011;41113;41.882;12.530;2023-05-23T00:06:27;18.25;;;11.07;;
54947;SDS011;41113;41.882;12.530;2023-05-23T00:08:54;23.20;;;11.63;;
54947;SDS011;41113;41.882;12.530;2023-05-23T00:11:21;17.15;;;11.30;;
54947;SDS011;41113;41.882;12.530;2023-05-23T00:13:51;21.42;;;11.60;;
54947;SDS011;41113;41.882;12.530;2023-05-23T00:16:20;17.10;;;11.15;;
54947;SDS011;41113;41.882;12.530;2023-05-23T00:18:46;17.77;;;11.45;;
54947;SDS011;41113;41.882;12.530;2023-05-23T00:21:14;17.48;;;10.55;;
54947;SDS011;41113;41.882;12.530;2023-05-23T00:23:40;17.95;;;10.80;;
54947;SDS011;41113;41.882;12.530;2023-05-23T00:26:09;18.92;;;11.02;;
54947;SDS011;41113;41.882;12.530;2023-05-23T00:28:38;20.75;;;11.02;;
54947;SDS011;41113;41.882;12.530;2023-05-23T00:31:03;16.63;;;11.30;;
54947;SDS011;41113;41.882;12.530;2023-05-23T00:33:29;18.60;;;10.80;;
54947;SDS011;41113;41.882;12.530;2023-05-23T00:35:57;17.30;;;10.02;;
54947;SDS011;41113;41.882;12.530;2023-05-23T00:38:25;15.90;;;9.70;;
54947;SDS011;41113;41.882;12.530;2023-05-23T00:40:52;17.83;;;9.80;;
54947;SDS011;41113;41.882;12.530;2023-05-23T00:43:17;18.65;;;10.00;;
54947;SDS011;41113;41.882;12.530;2023-05-23T00:45:45;16.80;;;10.38;;
54947;SDS011;41113;41.882;12.530;2023-05-23T00:48:11;15.55;;;9.65;;
54947;SDS011;41113;41.882;12.530;2023-05-23T00:50:37;20.95;;;10.88;;
54947;SDS011;41113;41.882;12.530;2023-05-23T00:53:02;17.90;;;10.55;;
54947;SDS011;41113;41.882;12.530;2023-05-23T00:55:28;16.33;;;9.95;;
54947;SDS011;41113;41.882;12.530;2023-05-23T00:57:54;17.73;;;10.15;;
54947;SDS011;41113;41.882;12.530;2023-05-23T01:00:24;19.77;;;9.98;;
54947;SDS011;41113;41.882;12.530;2023-05-23T01:02:50;16.55;;;9.10;;
54947;SDS011;41113;41.882;12.530;2023-05-23T01:05:17;16.83;;;11.02;;
54947;SDS011;41113;41.882;12.530;2023-05-23T01:07:43;15.18;;;10.43;;
54947;SDS011;41113;41.882;12.530;2023-05-23T01:10:14;18.67;;;10.50;;
54947;SDS011;41113;41.882;12.530;2023-05-23T01:12:58;17.95;;;10.20;;
54947;SDS011;41113;41.882;12.530;2023-05-23T01:18:36;19.58;;;9.70;;
54947;SDS011;41113;41.882;12.530;2023-05-23T01:21:08;17.70;;;9.85;;
54947;SDS011;41113;41.882;12.530;2023-05-23T01:28:54;16.67;;;9.50;;
54947;SDS011;41113;41.882;12.530;2023-05-23T01:31:23;18.27;;;11.03;;
54947;SDS011;41113;41.882;12.530;2023-05-23T01:33:51;16.90;;;9.93;;
54947;SDS011;41113;41.882;12.530;2023-05-23T01:36:19;17.75;;;10.45;;
54947;SDS011;41113;41.882;12.530;2023-05-23T01:38:45;16.88;;;11.02;;
54947;SDS011;41113;41.882;12.530;2023-05-23T01:41:10;19.67;;;11.18;;
54947;SDS011;41113;41.882;12.530;2023-05-23T01:43:35;19.52;;;11.02;;
54947;SDS011;41113;41.882;12.530;2023-05-23T01:46:01;16.77;;;10.57;;
54947;SDS011;41113;41.882;12.530;2023-05-23T01:48:28;17.15;;;11.43;;
54947;SDS011;41113;41.882;12.530;2023-05-23T01:50:55;20.60;;;11.50;;
54947;SDS011;41113;41.882;12.530;2023-05-23T01:53:21;18.08;;;11.98;;
54947;SDS011;41113;41.882;12.530;2023-05-23T01:55:47;18.70;;;9.95;;
54947;SDS011;41113;41.882;12.530;2023-05-23T01:58:13;17.85;;;10.43;;
54947;SDS011;41113;41.882;12.530;2023-05-23T02:00:38;16.35;;;10.00;;
54947;SDS011;41113;41.882;12.530;2023-05-23T02:03:04;16.52;;;10.02;;
54947;SDS011;41113;41.882;12.530;2023-05-23T02:05:30;17.38;;;11.25;;
54947;SDS011;41113;41.882;12.530;2023-05-23T02:07:55;18.73;;;11.10;;
54947;SDS011;41113;41.882;12.530;2023-05-23T02:10:21;20.33;;;11.18;;
54947;SDS011;41113;41.882;12.530;2023-05-23T02:12:46;17.63;;;11.10;;
54947;SDS011;41113;41.882;12.530;2023-05-23T02:15:12;21.35;;;12.32;;
54947;SDS011;41113;41.882;12.530;2023-05-23T02:17:38;15.98;;;10.07;;
54947;SDS011;41113;41.882;12.530;2023-05-23T02:20:05;14.25;;;10.00;;
54947;SDS011;41113;41.882;12.530;2023-05-23T02:22:31;23.45;;;12.65;;
54947;SDS011;41113;41.882;12.530;2023-05-23T02:24:57;17.95;;;11.25;;
54947;SDS011;41113;41.882;12.530;2023-05-23T02:27:22;18.10;;;11.15;;
54947;SDS011;41113;41.882;12.530;2023-05-23T02:29:47;14.63;;;9.48;;
54947;SDS011;41113;41.882;12.530;2023-05-23T02:32:13;17.10;;;11.48;;
54947;SDS011;41113;41.882;12.530;2023-05-23T02:34:38;15.07;;;9.88;;
54947;SDS011;41113;41.882;12.530;2023-05-23T02:37:04;18.02;;;10.80;;
54947;SDS011;41113;41.882;12.530;2023-05-23T02:39:29;18.65;;;11.45;;
54947;SDS011;41113;41.882;12.530;2023-05-23T02:41:55;17.15;;;11.68;;
54947;SDS011;41113;41.882;12.530;2023-05-23T02:44:20;17.85;;;10.57;;
54947;SDS011;41113;41.882;12.530;2023-05-23T02:46:45;18.55;;;9.48;;
54947;SDS011;41113;41.882;12.530;2023-05-23T02:49:11;17.25;;;10.45;;
54947;SDS011;41113;41.882;12.530;2023-05-23T02:51:36;17.98;;;11.40;;
54947;SDS011;41113;41.882;12.530;2023-05-23T02:54:02;17.67;;;10.65;;
54947;SDS011;41113;41.882;12.530;2023-05-23T02:56:27;21.05;;;12.13;;
54947;SDS011;41113;41.882;12.530;2023-05-23T02:58:53;18.20;;;12.32;;
54947;SDS011;41113;41.882;12.530;2023-05-23T03:01:18;18.33;;;10.93;;
54947;SDS011;41113;41.882;12.530;2023-05-23T03:03:44;16.80;;;10.63;;
54947;SDS011;41113;41.882;12.530;2023-05-23T03:06:09;18.23;;;10.98;;
54947;SDS011;41113;41.882;12.530;2023-05-23T03:08:38;19.50;;;11.80;;
54947;SDS011;41113;41.882;12.530;2023-05-23T03:11:06;22.58;;;13.00;;
54947;SDS011;41113;41.882;12.530;2023-05-23T03:13:31;21.98;;;11.95;;
54947;SDS011;41113;41.882;12.530;2023-05-23T03:15:56;19.33;;;12.23;;
54947;SDS011;41113;41.882;12.530;2023-05-23T03:18:22;17.00;;;12.27;;
54947;SDS011;41113;41.882;12.530;2023-05-23T03:20:47;20.58;;;12.65;;
54947;SDS011;41113;41.882;12.530;2023-05-23T03:23:13;18.52;;;12.25;;
54947;SDS011;41113;41.882;12.530;2023-05-23T03:25:38;20.77;;;12.15;;
54947;SDS011;41113;41.882;12.530;2023-05-23T03:28:03;18.83;;;12.68;;
54947;SDS011;41113;41.882;12.530;2023-05-23T03:30:29;17.95;;;10.50;;
54947;SDS011;41113;41.882;12.530;2023-05-23T03:32:54;17.98;;;10.95;;
54947;SDS011;41113;41.882;12.530;2023-05-23T03:35:21;18.88;;;10.60;;
54947;SDS011;41113;41.882;12.530;2023-05-23T03:37:46;22.33;;;10.95;;
54947;SDS011;41113;41.882;12.530;2023-05-23T03:40:12;19.77;;;11.48;;
54947;SDS011;41113;41.882;12.530;2023-05-23T03:42:38;18.63;;;11.75;;
54947;SDS011;41113;41.882;12.530;2023-05-23T03:45:03;18.90;;;11.10;;
54947;SDS011;41113;41.882;12.530;2023-05-23T03:47:30;17.70;;;11.82;;
54947;SDS011;41113;41.882;12.530;2023-05-23T03:49:55;19.25;;;11.48;;
54947;SDS011;41113;41.882;12.530;2023-05-23T03:52:21;19.88;;;11.85;;
54947;SDS011;41113;41.882;12.530;2023-05-23T03:54:46;16.83;;;10.60;;
54947;SDS011;41113;41.882;12.530;2023-05-23T03:57:12;17.17;;;10.75;;
54947;SDS011;41113;41.882;12.530;2023-05-23T03:59:38;15.18;;;10.50;;
54947;SDS011;41113;41.882;12.530;2023-05-23T04:02:04;15.02;;;9.35;;
54947;SDS011;41113;41.882;12.530;2023-05-23T04:04:30;17.70;;;10.98;;
54947;SDS011;41113;41.882;12.530;2023-05-23T04:06:56;18.98;;;10.85;;
54947;SDS011;41113;41.882;12.530;2023-05-23T04:09:22;20.15;;;12.52;;
54947;SDS011;41113;41.882;12.530;2023-05-23T04:11:47;17.40;;;10.10;;
54947;SDS011;41113;41.882;12.530;2023-05-23T04:14:13;16.17;;;10.35;;
54947;SDS011;41113;41.882;12.530;2023-05-23T04:16:38;18.60;;;9.93;;
54947;SDS011;41113;41.882;12.530;2023-05-23T04:19:05;19.17;;;9.00;;
54947;SDS011;41113;41.882;12.530;2023-05-23T04:21:31;22.42;;;10.18;;
54947;SDS011;41113;41.882;12.530;2023-05-23T04:23:57;18.17;;;9.10;;
54947;SDS011;41113;41.882;12.530;2023-05-23T04:26:22;22.15;;;10.32;;
54947;SDS011;41113;41.882;12.530;2023-05-23T04:28:48;17.73;;;9.43;;
54947;SDS011;41113;41.882;12.530;2023-05-23T04:31:14;18.50;;;9.80;;
54947;SDS011;41113;41.882;12.530;2023-05-23T04:33:39;14.00;;;8.27;;
54947;SDS011;41113;41.882;12.530;2023-05-23T04:36:05;15.43;;;9.32;;
54947;SDS011;41113;41.882;12.530;2023-05-23T04:38:33;20.42;;;9.50;;
54947;SDS011;41113;41.882;12.530;2023-05-23T04:41:00;16.92;;;9.07;;
54947;SDS011;41113;41.882;12.530;2023-05-23T04:43:25;17.45;;;9.05;;
54947;SDS011;41113;41.882;12.530;2023-05-23T04:45:53;15.73;;;9.27;;
54947;SDS011;41113;41.882;12.530;2023-05-23T04:48:18;15.82;;;8.70;;
54947;SDS011;41113;41.882;12.530;2023-05-23T04:50:46;15.63;;;8.63;;
54947;SDS011;41113;41.882;12.530;2023-05-23T04:53:12;15.98;;;8.70;;
54947;SDS011;41113;41.882;12.530;2023-05-23T04:55:38;19.15;;;9.00;;
54947;SDS011;41113;41.882;12.530;2023-05-23T04:58:03;17.58;;;9.38;;
54947;SDS011;41113;41.882;12.530;2023-05-23T05:00:28;14.93;;;7.63;;
54947;SDS011;41113;41.882;12.530;2023-05-23T05:02:54;16.23;;;9.10;;
54947;SDS011;41113;41.882;12.530;2023-05-23T05:05:20;14.45;;;8.27;;
54947;SDS011;41113;41.882;12.530;2023-05-23T05:07:45;16.58;;;9.07;;
54947;SDS011;41113;41.882;12.530;2023-05-23T05:10:11;14.38;;;8.60;;
54947;SDS011;41113;41.882;12.530;2023-05-23T05:12:45;14.63;;;8.38;;
54947;SDS011;41113;41.882;12.530;2023-05-23T05:15:15;17.70;;;8.02;;
54947;SDS011;41113;41.882;12.530;2023-05-23T05:17:41;14.30;;;8.10;;
54947;SDS011;41113;41.882;12.530;2023-05-23T05:20:07;16.83;;;8.40;;
54947;SDS011;41113;41.882;12.530;2023-05-23T05:22:35;17.75;;;8.45;;
54947;SDS011;41113;41.882;12.530;2023-05-23T05:25:01;16.27;;;8.52;;
54947;SDS011;41113;41.882;12.530;2023-05-23T05:27:27;14.70;;;8.23;;
54947;SDS011;41113;41.882;12.530;2023-05-23T05:29:53;16.42;;;7.93;;
54947;SDS011;41113;41.882;12.530;2023-05-23T05:34:47;17.45;;;8.07;;
54947;SDS011;41113;41.882;12.530;2023-05-23T05:37:14;15.25;;;7.63;;
54947;SDS011;41113;41.882;12.530;2023-05-23T05:39:40;13.18;;;6.28;;
54947;SDS011;41113;41.882;12.530;2023-05-23T05:42:06;15.50;;;6.32;;
54947;SDS011;41113;41.882;12.530;2023-05-23T05:44:33;14.57;;;7.30;;
54947;SDS011;41113;41.882;12.530;2023-05-23T05:46:58;16.13;;;7.20;;
54947;SDS011;41113;41.882;12.530;2023-05-23T05:49:25;12.93;;;6.93;;
54947;SDS011;41113;41.882;12.530;2023-05-23T05:51:51;13.48;;;6.82;;
54947;SDS011;41113;41.882;12.530;2023-05-23T05:54:17;12.07;;;6.43;;
54947;SDS011;41113;41.882;12.530;2023-05-23T05:56:42;12.23;;;6.53;;
54947;SDS011;41113;41.882;12.530;2023-05-23T05:59:07;12.80;;;6.60;;
54947;SDS011;41113;41.882;12.530;2023-05-23T06:01:34;12.93;;;6.85;;
54947;SDS011;41113;41.882;12.530;2023-05-23T06:03:59;16.77;;;6.45;;
54947;SDS011;41113;41.882;12.530;2023-05-23T06:06:25;12.85;;;5.75;;
54947;SDS011;41113;41.882;12.530;2023-05-23T06:08:50;17.80;;;8.93;;
54947;SDS011;41113;41.882;12.530;2023-05-23T06:11:16;17.02;;;7.28;;
54947;SDS011;41113;41.882;12.530;2023-05-23T06:13:41;12.90;;;6.20;;
54947;SDS011;41113;41.882;12.530;2023-05-23T06:16:07;11.75;;;6.10;;
54947;SDS011;41113;41.882;12.530;2023-05-23T06:18:32;14.65;;;6.32;;
54947;SDS011;41113;41.882;12.530;2023-05-23T06:20:59;13.70;;;5.82;;
54947;SDS011;41113;41.882;12.530;2023-05-23T06:23:24;15.10;;;6.28;;
54947;SDS011;41113;41.882;12.530;2023-05-23T06:25:50;12.32;;;6.78;;
54947;SDS011;41113;41.882;12.530;2023-05-23T06:28:15;11.52;;;6.72;;
54947;SDS011;41113;41.882;12.530;2023-05-23T06:30:40;12.43;;;5.93;;
54947;SDS011;41113;41.882;12.530;2023-05-23T06:33:06;14.50;;;6.18;;
54947;SDS011;41113;41.882;12.530;2023-05-23T06:35:31;12.85;;;6.15;;
54947;SDS011;41113;41.882;12.530;2023-05-23T06:37:57;11.32;;;6.35;;
54947;SDS011;41113;41.882;12.530;2023-05-23T06:40:22;11.65;;;6.35;;
54947;SDS011;41113;41.882;12.530;2023-05-23T06:42:47;12.63;;;6.75;;
54947;SDS011;41113;41.882;12.530;2023-05-23T06:45:13;14.27;;;6.65;;
54947;SDS011;41113;41.882;12.530;2023-05-23T06:47:38;12.75;;;6.82;;
54947;SDS011;41113;41.882;12.530;2023-05-23T06:50:07;12.40;;;6.82;;
54947;SDS011;41113;41.882;12.530;2023-05-23T06:52:33;15.98;;;6.63;;
54947;SDS011;41113;41.882;12.530;2023-05-23T06:54:58;13.18;;;6.53;;
54947;SDS011;41113;41.882;12.530;2023-05-23T06:57:24;13.73;;;6.95;;
54947;SDS011;41113;41.882;12.530;2023-05-23T06:59:49;12.13;;;6.32;;
54947;SDS011;41113;41.882;12.530;2023-05-23T07:02:15;11.90;;;6.47;;
54947;SDS011;41113;41.882;12.530;2023-05-23T07:04:40;14.38;;;6.80;;
54947;SDS011;41113;41.882;12.530;2023-05-23T07:07:05;13.80;;;6.88;;
54947;SDS011;41113;41.882;12.530;2023-05-23T07:09:31;13.90;;;7.13;;
54947;SDS011;41113;41.882;12.530;2023-05-23T07:11:56;14.10;;;7.18;;
54947;SDS011;41113;41.882;12.530;2023-05-23T07:14:21;15.30;;;6.95;;
54947;SDS011;41113;41.882;12.530;2023-05-23T07:16:46;14.32;;;6.80;;
54947;SDS011;41113;41.882;12.530;2023-05-23T07:19:12;16.90;;;7.25;;
54947;SDS011;41113;41.882;12.530;2023-05-23T07:21:39;16.70;;;7.85;;
54947;SDS011;41113;41.882;12.530;2023-05-23T07:24:04;12.88;;;6.93;;
54947;SDS011;41113;41.882;12.530;2023-05-23T07:26:30;11.48;;;5.30;;
54947;SDS011;41113;41.882;12.530;2023-05-23T07:28:55;14.38;;;7.90;;
54947;SDS011;41113;41.882;12.530;2023-05-23T07:31:20;12.93;;;6.90;;
54947;SDS011;41113;41.882;12.530;2023-05-23T07:33:46;11.88;;;6.65;;
54947;SDS011;41113;41.882;12.530;2023-05-23T07:36:11;13.88;;;7.13;;
54947;SDS011;41113;41.882;12.530;2023-05-23T07:38:38;13.98;;;6.70;;
54947;SDS011;41113;41.882;12.530;2023-05-23T07:41:03;15.43;;;7.65;;
54947;SDS011;41113;41.882;12.530;2023-05-23T07:43:28;14.38;;;7.30;;
54947;SDS011;41113;41.882;12.530;2023-05-23T07:45:54;11.88;;;6.30;;
54947;SDS011;41113;41.882;12.530;2023-05-23T07:48:19;13.48;;;6.57;;
54947;SDS011;41113;41.882;12.530;2023-05-23T07:50:45;14.00;;;7.55;;
54947;SDS011;41113;41.882;12.530;2023-05-23T07:53:10;14.05;;;7.57;;
54947;SDS011;41113;41.882;12.530;2023-05-23T07:55:35;14.68;;;7.55;;
54947;SDS011;41113;41.882;12.530;2023-05-23T07:58:01;14.57;;;7.63;;
54947;SDS011;41113;41.882;12.530;2023-05-23T08:00:26;11.93;;;7.00;;
54947;SDS011;41113;41.882;12.530;2023-05-23T08:02:52;13.20;;;6.88;;
54947;SDS011;41113;41.882;12.530;2023-05-23T08:05:17;15.38;;;8.52;;
54947;SDS011;41113;41.882;12.530;2023-05-23T08:07:43;14.30;;;7.65;;
54947;SDS011;41113;41.882;12.530;2023-05-23T08:10:09;13.48;;;6.85;;
54947;SDS011;41113;41.882;12.530;2023-05-23T08:12:34;14.50;;;6.93;;
54947;SDS011;41113;41.882;12.530;2023-05-23T08:15:00;12.90;;;6.50;;
54947;SDS011;41113;41.882;12.530;2023-05-23T08:17:25;12.55;;;6.28;;
54947;SDS011;41113;41.882;12.530;2023-05-23T08:19:51;13.40;;;6.50;;
54947;SDS011;41113;41.882;12.530;2023-05-23T08:22:17;12.55;;;5.95;;
54947;SDS011;41113;41.882;12.530;2023-05-23T08:24:42;12.18;;;5.55;;
54947;SDS011;41113;41.882;12.530;2023-05-23T08:27:07;14.70;;;7.45;;
54947;SDS011;41113;41.882;12.530;2023-05-23T08:29:33;13.30;;;6.93;;
54947;SDS011;41113;41.882;12.530;2023-05-23T08:31:59;12.55;;;6.95;;
54947;SDS011;41113;41.882;12.530;2023-05-23T08:34:24;12.98;;;5.72;;
54947;SDS011;41113;41.882;12.530;2023-05-23T08:36:50;15.80;;;6.13;;
54947;SDS011;41113;41.882;12.530;2023-05-23T08:39:16;14.25;;;6.05;;
54947;SDS011;41113;41.882;12.530;2023-05-23T08:41:42;12.35;;;6.43;;
54947;SDS011;41113;41.882;12.530;2023-05-23T08:44:07;11.45;;;6.28;;
54947;SDS011;41113;41.882;12.530;2023-05-23T08:46:33;14.55;;;6.80;;
54947;SDS011;41113;41.882;12.530;2023-05-23T08:49:04;14.63;;;6.63;;
54947;SDS011;41113;41.882;12.530;2023-05-23T08:51:31;13.15;;;6.43;;
54947;SDS011;41113;41.882;12.530;2023-05-23T08:54:01;15.75;;;6.57;;
54947;SDS011;41113;41.882;12.530;2023-05-23T08:56:27;11.60;;;5.78;;
54947;SDS011;41113;41.882;12.530;2023-05-23T08:58:52;12.60;;;6.85;;
54947;SDS011;41113;41.882;12.530;2023-05-23T09:01:19;11.13;;;5.57;;
54947;SDS011;41113;41.882;12.530;2023-05-23T09:03:44;13.27;;;6.22;;
54947;SDS011;41113;41.882;12.530;2023-05-23T09:06:10;14.15;;;6.30;;
54947;SDS011;41113;41.882;12.530;2023-05-23T09:08:35;13.52;;;6.63;;
54947;SDS011;41113;41.882;12.530;2023-05-23T09:11:02;11.68;;;5.57;;
54947;SDS011;41113;41.882;12.530;2023-05-23T09:13:31;10.98;;;5.43;;
54947;SDS011;41113;41.882;12.530;2023-05-23T09:18:43;10.85;;;5.25;;
54947;SDS011;41113;41.882;12.530;2023-05-23T09:21:09;10.73;;;5.30;;
54947;SDS011;41113;41.882;12.530;2023-05-23T09:23:36;9.55;;;5.10;;
54947;SDS011;41113;41.882;12.530;2023-05-23T09:26:06;15.60;;;6.38;;
54947;SDS011;41113;41.882;12.530;2023-05-23T09:28:33;13.15;;;6.25;;
54947;SDS011;41113;41.882;12.530;2023-05-23T09:31:01;13.75;;;5.53;;
54947;SDS011;41113;41.882;12.530;2023-05-23T09:36:02;14.68;;;6.60;;
54947;SDS011;41113;41.882;12.530;2023-05-23T09:38:29;13.57;;;5.85;;
54947;SDS011;41113;41.882;12.530;2023-05-23T09:40:54;10.85;;;5.28;;
54947;SDS011;41113;41.882;12.530;2023-05-23T09:43:22;12.85;;;5.70;;
54947;SDS011;41113;41.882;12.530;2023-05-23T09:45:47;12.93;;;5.95;;
54947;SDS011;41113;41.882;12.530;2023-05-23T09:48:12;11.82;;;6.28;;
54947;SDS011;41113;41.882;12.530;2023-05-23T09:50:39;11.48;;;6.40;;
54947;SDS011;41113;41.882;12.530;2023-05-23T09:53:05;12.60;;;6.80;;
54947;SDS011;41113;41.882;12.530;2023-05-23T09:55:30;13.55;;;6.55;;
54947;SDS011;41113;41.882;12.530;2023-05-23T09:57:55;13.45;;;6.80;;
54947;SDS011;41113;41.882;12.530;2023-05-23T10:00:23;11.43;;;5.68;;
54947;SDS011;41113;41.882;12.530;2023-05-23T10:02:53;10.63;;;5.93;;
54947;SDS011;41113;41.882;12.530;2023-05-23T10:08:15;11.10;;;5.75;;
54947;SDS011;41113;41.882;12.530;2023-05-23T10:13:24;11.45;;;5.10;;
54947;SDS011;41113;41.882;12.530;2023-05-23T10:16:05;12.90;;;5.88;;
54947;SDS011;41113;41.882;12.530;2023-05-23T10:18:42;12.60;;;6.18;;
54947;SDS011;41113;41.882;12.530;2023-05-23T10:21:08;12.02;;;6.03;;
54947;SDS011;41113;41.882;12.530;2023-05-23T10:23:36;13.30;;;6.13;;
54947;SDS011;41113;41.882;12.530;2023-05-23T10:26:02;12.68;;;5.82;;
54947;SDS011;41113;41.882;12.530;2023-05-23T10:28:29;15.40;;;5.90;;
54947;SDS011;41113;41.882;12.530;2023-05-23T10:30:55;12.88;;;5.68;;
54947;SDS011;41113;41.882;12.530;2023-05-23T10:33:21;12.43;;;5.43;;
54947;SDS011;41113;41.882;12.530;2023-05-23T10:38:57;9.95;;;5.50;;
54947;SDS011;41113;41.882;12.530;2023-05-23T10:41:30;12.82;;;5.53;;
54947;SDS011;41113;41.882;12.530;2023-05-23T10:46:56;12.00;;;5.97;;
54947;SDS011;41113;41.882;12.530;2023-05-23T10:52:07;10.55;;;5.28;;
54947;SDS011;41113;41.882;12.530;2023-05-23T10:54:34;10.88;;;5.22;;
54947;SDS011;41113;41.882;12.530;2023-05-23T10:57:10;10.20;;;5.40;;
54947;SDS011;41113;41.882;12.530;2023-05-23T10:59:40;13.02;;;5.70;;
54947;SDS011;41113;41.882;12.530;2023-05-23T11:02:12;12.40;;;5.90;;
54947;SDS011;41113;41.882;12.530;2023-05-23T11:04:41;13.23;;;5.70;;
54947;SDS011;41113;41.882;12.530;2023-05-23T11:07:30;12.27;;;6.18;;
54947;SDS011;41113;41.882;12.530;2023-05-23T11:10:29;10.93;;;5.35;;
54947;SDS011;41113;41.882;12.530;2023-05-23T11:12:48;12.20;;;5.70;;
54947;SDS011;41113;41.882;12.530;2023-05-23T11:17:51;11.93;;;5.50;;
54947;SDS011;41113;41.882;12.530;2023-05-23T11:20:18;13.57;;;5.65;;
54947;SDS011;41113;41.882;12.530;2023-05-23T11:23:01;11.65;;;5.40;;
54947;SDS011;41113;41.882;12.530;2023-05-23T11:25:40;11.40;;;5.28;;
54947;SDS011;41113;41.882;12.530;2023-05-23T11:28:15;10.52;;;6.10;;
54947;SDS011;41113;41.882;12.530;2023-05-23T11:30:41;10.40;;;5.18;;
54947;SDS011;41113;41.882;12.530;2023-05-23T11:35:36;12.57;;;5.88;;
54947;SDS011;41113;41.882;12.530;2023-05-23T11:38:02;10.63;;;5.43;;
54947;SDS011;41113;41.882;12.530;2023-05-23T11:40:29;12.65;;;6.22;;
54947;SDS011;41113;41.882;12.530;2023-05-23T11:42:57;11.13;;;5.90;;
54947;SDS011;41113;41.882;12.530;2023-05-23T11:45:25;13.80;;;5.85;;
54947;SDS011;41113;41.882;12.530;2023-05-23T11:47:52;12.98;;;6.15;;
54947;SDS011;41113;41.882;12.530;2023-05-23T11:50:17;13.82;;;6.72;;
54947;SDS011;41113;41.882;12.530;2023-05-23T11:52:44;13.45;;;6.53;;
54947;SDS011;41113;41.882;12.530;2023-05-23T11:55:15;17.45;;;7.38;;
54947;SDS011;41113;41.882;12.530;2023-05-23T11:57:45;13.82;;;6.55;;
54947;SDS011;41113;41.882;12.530;2023-05-23T12:00:11;14.75;;;6.90;;
54947;SDS011;41113;41.882;12.530;2023-05-23T12:02:37;12.55;;;6.70;;
54947;SDS011;41113;41.882;12.530;2023-05-23T12:05:08;12.07;;;7.15;;
54947;SDS011;41113;41.882;12.530;2023-05-23T12:07:34;13.00;;;7.30;;
54947;SDS011;41113;41.882;12.530;2023-05-23T12:10:02;11.95;;;6.93;;
54947;SDS011;41113;41.882;12.530;2023-05-23T12:12:30;13.32;;;6.68;;
54947;SDS011;41113;41.882;12.530;2023-05-23T12:14:56;13.68;;;6.90;;
54947;SDS011;41113;41.882;12.530;2023-05-23T12:17:22;13.55;;;7.28;;
54947;SDS011;41113;41.882;12.530;2023-05-23T12:19:47;11.68;;;6.63;;
54947;SDS011;41113;41.882;12.530;2023-05-23T12:22:13;12.80;;;6.28;;
54947;SDS011;41113;41.882;12.530;2023-05-23T12:24:43;11.95;;;6.80;;
54947;SDS011;41113;41.882;12.530;2023-05-23T12:27:11;12.27;;;7.38;;
54947;SDS011;41113;41.882;12.530;2023-05-23T12:29:37;13.25;;;7.53;;
54947;SDS011;41113;41.882;12.530;2023-05-23T12:32:04;15.52;;;7.43;;
54947;SDS011;41113;41.882;12.530;2023-05-23T12:34:31;12.20;;;6.88;;
54947;SDS011;41113;41.882;12.530;2023-05-23T12:36:57;13.27;;;6.93;;
54947;SDS011;41113;41.882;12.530;2023-05-23T12:39:27;13.35;;;6.90;;
54947;SDS011;41113;41.882;12.530;2023-05-23T12:44:22;12.70;;;6.80;;
54947;SDS011;41113;41.882;12.530;2023-05-23T12:46:48;12.50;;;6.68;;
54947;SDS011;41113;41.882;12.530;2023-05-23T12:49:13;14.52;;;7.53;;
54947;SDS011;41113;41.882;12.530;2023-05-23T12:51:39;13.10;;;7.05;;
54947;SDS011;41113;41.882;12.530;2023-05-23T12:54:04;11.75;;;6.68;;
54947;SDS011;41113;41.882;12.530;2023-05-23T12:56:30;12.27;;;6.57;;
54947;SDS011;41113;41.882;12.530;2023-05-23T12:58:57;14.18;;;6.93;;
54947;SDS011;41113;41.882;12.530;2023-05-23T13:01:22;15.00;;;7.65;;
54947;SDS011;41113;41.882;12.530;2023-05-23T13:03:48;13.15;;;6.45;;
54947;SDS011;41113;41.882;12.530;2023-05-23T13:06:13;12.68;;;6.93;;
54947;SDS011;41113;41.882;12.530;2023-05-23T13:08:39;12.98;;;7.65;;
54947;SDS011;41113;41.882;12.530;2023-05-23T13:11:04;16.10;;;7.43;;
54947;SDS011;41113;41.882;12.530;2023-05-23T13:13:30;16.20;;;7.43;;
54947;SDS011;41113;41.882;12.530;2023-05-23T13:15:57;14.63;;;6.72;;
54947;SDS011;41113;41.882;12.530;2023-05-23T13:18:23;12.30;;;6.70;;
54947;SDS011;41113;41.882;12.530;2023-05-23T13:20:48;11.77;;;6.75;;
54947;SDS011;41113;41.882;12.530;2023-05-23T13:23:13;11.82;;;6.88;;
54947;SDS011;41113;41.882;12.530;2023-05-23T13:25:40;11.23;;;6.18;;
54947;SDS011;41113;41.882;12.530;2023-05-23T13:28:05;14.60;;;7.13;;
54947;SDS011;41113;41.882;12.530;2023-05-23T13:30:31;14.23;;;6.95;;
54947;SDS011;41113;41.882;12.530;2023-05-23T13:32:57;11.70;;;6.10;;
54947;SDS011;41113;41.882;12.530;2023-05-23T13:35:23;12.82;;;6.78;;
54947;SDS011;41113;41.882;12.530;2023-05-23T13:37:48;14.40;;;7.03;;
54947;SDS011;41113;41.882;12.530;2023-05-23T13:40:17;14.02;;;7.10;;
54947;SDS011;41113;41.882;12.530;2023-05-23T13:42:45;15.55;;;7.20;;
54947;SDS011;41113;41.882;12.530;2023-05-23T13:45:11;12.60;;;6.15;;
54947;SDS011;41113;41.882;12.530;2023-05-23T13:47:37;13.15;;;6.80;;
54947;SDS011;41113;41.882;12.530;2023-05-23T13:50:03;12.25;;;6.47;;
54947;SDS011;41113;41.882;12.530;2023-05-23T13:52:29;10.80;;;6.20;;
54947;SDS011;41113;41.882;12.530;2023-05-23T13:54:55;14.07;;;6.82;;
54947;SDS011;41113;41.882;12.530;2023-05-23T13:57:20;11.98;;;6.38;;
54947;SDS011;41113;41.882;12.530;2023-05-23T13:59:46;12.93;;;6.47;;
54947;SDS011;41113;41.882;12.530;2023-05-23T14:02:12;14.00;;;6.97;;
54947;SDS011;41113;41.882;12.530;2023-05-23T14:04:38;14.02;;;6.53;;
54947;SDS011;41113;41.882;12.530;2023-05-23T14:07:03;14.38;;;7.05;;
54947;SDS011;41113;41.882;12.530;2023-05-23T14:09:28;13.57;;;7.10;;
54947;SDS011;41113;41.882;12.530;2023-05-23T14:11:54;15.75;;;6.97;;
54947;SDS011;41113;41.882;12.530;2023-05-23T14:14:19;12.70;;;6.75;;
54947;SDS011;41113;41.882;12.530;2023-05-23T14:16:45;14.95;;;7.22;;
54947;SDS011;41113;41.882;12.530;2023-05-23T14:19:10;12.63;;;6.60;;
54947;SDS011;41113;41.882;12.530;2023-05-23T14:21:36;15.13;;;7.10;;
54947;SDS011;41113;41.882;12.530;2023-05-23T14:24:02;14.80;;;7.00;;
54947;SDS011;41113;41.882;12.530;2023-05-23T14:26:28;11.63;;;6.55;;
54947;SDS011;41113;41.882;12.530;2023-05-23T14:28:54;13.68;;;7.07;;
54947;SDS011;41113;41.882;12.530;2023-05-23T14:31:19;13.90;;;6.53;;
54947;SDS011;41113;41.882;12.530;2023-05-23T14:33:45;17.20;;;7.80;;
54947;SDS011;41113;41.882;12.530;2023-05-23T14:36:11;12.50;;;7.00;;
54947;SDS011;41113;41.882;12.530;2023-05-23T14:38:36;15.25;;;7.40;;
54947;SDS011;41113;41.882;12.530;2023-05-23T14:41:03;13.25;;;7.07;;
54947;SDS011;41113;41.882;12.530;2023-05-23T14:43:29;14.52;;;7.55;;
54947;SDS011;41113;41.882;12.530;2023-05-23T14:45:54;12.80;;;7.40;;
54947;SDS011;41113;41.882;12.530;2023-05-23T14:48:19;14.32;;;6.85;;
54947;SDS011;41113;41.882;12.530;2023-05-23T14:50:45;14.45;;;6.50;;
54947;SDS011;41113;41.882;12.530;2023-05-23T14:53:10;15.57;;;7.13;;